Terminal Aerodrome Forecast
Issued by NWS

Home | Current Version | Previous Version | Text Only | Print | Product List | Glossary On
Versions: 1 2 3 4 5 6 7 8 9 10 11 12 13 14 15 16 17 18 19 20
000
FTUS43 KMQT 061127
TAFSAW
TAF
KSAW 061127Z 0612/0712 22010G15KT P6SM SCT130 WS020/24045KT
     FM061600 22013G23KT P6SM SCT090
     FM062000 24010G16KT P6SM BKN040
     FM062300 27007KT P6SM BKN026
     FM070100 27005KT P6SM BKN060
     FM071000 22005KT 4SM -SN OVC030
     FM071100 22005KT 3SM -SN OVC020
      AMD LTD TO CLD VIS AND WIND 0703/0711=

USA.gov is the U.S. government's official web portal to all federal, state and local government web resources and services.